Time;durP1;ratioP1;P1;durP2;ratioP2;P2;SDS_P1;SDS_P2;PMS_P1;PMS_P2;Temp;Humidity;BMP_temperature;BMP_pressure;BME280_temperature;BME280_humidity;BME280_pressure;Samples;Min_cycle;Max_cycle;Signal;HPM_P1;HPM_P2
2021/03/27 00:01:06;;;;;;;64.45;34.67;;;10.10;73.40;;;;;;4909089;29;20047;-64
2021/03/27 00:03:54;;;;;;;64.07;35.00;;;10.10;73.30;;;;;;4907869;29;20306;-66
2021/03/27 00:06:36;;;;;;;68.25;35.30;;;10.10;73.20;;;;;;4904073;29;20046;-66
2021/03/27 00:09:14;;;;;;;66.70;35.05;;;10.20;73.40;;;;;;4902881;29;20051;-65
2021/03/27 00:12:04;;;;;;;66.82;35.97;;;10.10;73.00;;;;;;4904146;29;20039;-65
2021/03/27 00:14:48;;;;;;;66.03;35.35;;;10.20;73.00;;;;;;4908507;29;20483;-65
2021/03/27 00:17:20;;;;;;;64.07;34.20;;;10.20;72.90;;;;;;4912238;29;20095;-65
2021/03/27 00:19:54;;;;;;;61.42;34.38;;;10.20;72.90;;;;;;4911108;29;20047;-66
2021/03/27 00:22:31;;;;;;;67.50;34.85;;;10.30;72.80;;;;;;4906944;29;20036;-65
2021/03/27 00:25:12;;;;;;;60.55;33.70;;;10.30;72.40;;;;;;4920247;29;20031;-65
2021/03/27 00:28:13;;;;;;;61.33;34.35;;;10.30;72.50;;;;;;4900936;29;20120;-65
2021/03/27 00:30:51;;;;;;;62.80;35.30;;;10.30;72.20;;;;;;4909571;29;20042;-66
2021/03/27 00:33:25;;;;;;;64.10;34.72;;;10.30;72.30;;;;;;4910772;29;20044;-65
2021/03/27 00:35:56;;;;;;;61.55;32.35;;;10.30;72.50;;;;;;4915501;29;20660;-66
2021/03/27 00:38:28;;;;;;;61.83;32.95;;;10.30;72.50;;;;;;4918961;29;20296;-66
2021/03/27 00:40:55;;;;;;;62.80;32.63;;;10.30;72.60;;;;;;4920760;29;20058;-65
2021/03/27 00:43:35;;;;;;;61.75;34.33;;;10.30;72.40;;;;;;4919490;29;20558;-65
2021/03/27 00:46:05;;;;;;;57.72;32.03;;;10.30;72.50;;;;;;4906577;29;20048;-65
2021/03/27 00:48:43;;;;;;;62.38;33.05;;;10.30;72.60;;;;;;4910903;29;20491;-65
2021/03/27 00:51:28;;;;;;;58.70;32.47;;;10.30;72.20;;;;;;4908950;29;20050;-65
2021/03/27 00:53:58;;;;;;;60.10;31.20;;;10.30;72.70;;;;;;4902581;29;20035;-60
2021/03/27 00:56:51;;;;;;;60.50;32.10;;;10.30;72.90;;;;;;4901573;29;20416;-60
2021/03/27 00:59:26;;;;;;;59.67;32.53;;;10.30;72.20;;;;;;4905481;29;20036;-60
2021/03/27 01:02:03;;;;;;;62.75;33.22;;;10.30;72.70;;;;;;4907958;29;20087;-62
2021/03/27 01:05:08;;;;;;;56.03;31.17;;;10.30;72.10;;;;;;4911533;29;20039;-62
2021/03/27 01:08:14;;;;;;;51.65;28.48;;;10.30;72.50;;;;;;4905363;29;20813;-62
2021/03/27 01:11:02;;;;;;;53.42;30.20;;;10.30;72.30;;;;;;4903642;29;20087;-62
2021/03/27 01:13:46;;;;;;;58.28;29.55;;;10.30;71.70;;;;;;4904475;29;20036;-62
2021/03/27 01:16:16;;;;;;;57.58;29.30;;;10.40;71.80;;;;;;4906218;29;20123;-62
2021/03/27 01:18:46;;;;;;;54.30;27.55;;;10.30;71.90;;;;;;4910271;29;20032;-62
2021/03/27 01:21:16;;;;;;;52.28;28.30;;;10.30;72.00;;;;;;4912927;29;20044;-62
2021/03/27 01:23:43;;;;;;;51.60;28.77;;;10.30;72.10;;;;;;4918398;29;20039;-62
2021/03/27 01:26:21;;;;;;;50.67;27.75;;;10.30;71.60;;;;;;4920562;29;20938;-62
2021/03/27 01:28:55;;;;;;;54.13;27.98;;;10.30;71.30;;;;;;4918860;29;20893;-62
2021/03/27 01:31:46;;;;;;;49.28;26.65;;;10.40;71.70;;;;;;4906757;29;20036;-62
2021/03/27 01:34:15;;;;;;;49.35;27.45;;;10.40;70.70;;;;;;4910565;29;20051;-62
2021/03/27 01:36:42;;;;;;;48.05;26.48;;;10.50;70.30;;;;;;4914543;29;20048;-62
2021/03/27 01:39:23;;;;;;;52.30;26.75;;;10.50;70.40;;;;;;4918453;29;20287;-60
2021/03/27 01:42:22;;;;;;;44.33;24.90;;;10.50;69.90;;;;;;4919270;29;20044;-62
2021/03/27 01:45:05;;;;;;;49.67;25.92;;;10.50;69.50;;;;;;4869190;29;20459;-62
2021/03/27 01:47:36;;;;;;;47.83;25.20;;;10.60;69.50;;;;;;4908636;29;20031;-62
2021/03/27 01:50:16;;;;;;;50.63;27.33;;;10.50;69.50;;;;;;4909455;29;20035;-62
2021/03/27 01:53:10;;;;;;;43.33;24.15;;;10.50;69.30;;;;;;4914725;29;20032;-62
2021/03/27 01:56:04;;;;;;;46.00;25.20;;;10.50;69.50;;;;;;4919609;29;20043;-62
2021/03/27 01:58:54;;;;;;;42.78;23.83;;;10.60;69.10;;;;;;4898215;29;20122;-62
2021/03/27 02:01:31;;;;;;;41.90;22.92;;;10.60;69.10;;;;;;4907485;29;20412;-62
2021/03/27 02:04:13;;;;;;;45.63;24.80;;;10.60;69.60;;;;;;4908965;29;20416;-62
2021/03/27 02:07:16;;;;;;;43.60;24.17;;;10.60;69.20;;;;;;4907342;29;20468;-62
2021/03/27 02:10:00;;;;;;;43.42;23.67;;;10.70;69.20;;;;;;4836284;29;20042;-62
2021/03/27 02:12:41;;;;;;;44.53;21.80;;;10.80;68.90;;;;;;4901132;29;20088;-62
2021/03/27 02:15:15;;;;;;;42.63;23.45;;;10.80;68.10;;;;;;4916028;29;20467;-62
2021/03/27 02:17:53;;;;;;;45.97;23.67;;;10.70;68.80;;;;;;4907202;29;20733;-62
2021/03/27 02:20:37;;;;;;;47.28;24.90;;;10.70;68.80;;;;;;4908338;29;20075;-62
2021/03/27 02:23:19;;;;;;;46.47;24.63;;;10.70;68.70;;;;;;4915033;29;20059;-62
2021/03/27 02:26:10;;;;;;;42.83;24.05;;;10.60;68.90;;;;;;4918236;29;20149;-62
2021/03/27 02:28:38;;;;;;;44.40;24.13;;;10.60;69.30;;;;;;4919129;29;20088;-60
2021/03/27 02:31:19;;;;;;;51.03;26.35;;;10.50;69.30;;;;;;4914394;29;20039;-62
2021/03/27 02:34:02;;;;;;;37.30;22.88;;;10.40;69.50;;;;;;4909124;29;20125;-60
2021/03/27 02:36:55;;;;;;;43.45;23.88;;;10.40;69.60;;;;;;4906246;29;20039;-62
2021/03/27 02:39:59;;;;;;;44.20;24.05;;;10.40;69.80;;;;;;4902717;29;20262;-61
2021/03/27 02:42:27;;;;;;;49.10;24.80;;;10.40;70.10;;;;;;4849660;29;20475;-62
2021/03/27 02:45:12;;;;;;;40.20;22.55;;;10.40;69.90;;;;;;4901235;29;20032;-62
2021/03/27 02:47:43;;;;;;;43.28;24.88;;;10.40;70.00;;;;;;4907949;29;20070;-62
2021/03/27 02:50:37;;;;;;;40.10;24.50;;;10.40;69.80;;;;;;4909765;29;20048;-62
2021/03/27 02:53:17;;;;;;;44.15;23.25;;;10.40;69.50;;;;;;4913798;29;20135;-62
2021/03/27 02:56:14;;;;;;;35.83;20.83;;;10.40;69.50;;;;;;4899200;29;20064;-62
2021/03/27 02:58:54;;;;;;;43.50;23.42;;;10.40;69.70;;;;;;4902445;29;20048;-62
2021/03/27 03:01:30;;;;;;;46.08;24.55;;;10.40;69.80;;;;;;4904798;29;20044;-62
2021/03/27 03:04:19;;;;;;;41.53;23.75;;;10.40;70.10;;;;;;4891072;29;20048;-68
2021/03/27 03:07:02;;;;;;;44.42;23.50;;;10.40;69.80;;;;;;4906666;29;20075;-66
2021/03/27 03:10:14;;;;;;;42.28;23.73;;;10.40;70.00;;;;;;4905382;29;20040;-66
2021/03/27 03:13:08;;;;;;;42.17;22.50;;;10.30;70.30;;;;;;4900683;29;20056;-66
2021/03/27 03:15:57;;;;;;;38.05;22.13;;;10.30;70.50;;;;;;4896314;29;20051;-68
2021/03/27 03:18:38;;;;;;;39.75;23.27;;;10.30;70.90;;;;;;4911608;29;20043;-67
2021/03/27 03:21:20;;;;;;;43.17;23.33;;;10.30;70.80;;;;;;4910647;29;20488;-67
2021/03/27 03:23:58;;;;;;;41.20;21.42;;;10.30;70.90;;;;;;4887433;29;20056;-66
2021/03/27 03:26:29;;;;;;;39.65;21.00;;;10.30;70.10;;;;;;4901813;29;20922;-67
2021/03/27 03:29:07;;;;;;;42.70;21.90;;;10.30;70.20;;;;;;4901416;29;20512;-67
2021/03/27 03:31:51;;;;;;;34.72;20.02;;;10.40;69.70;;;;;;4904649;29;20040;-66
2021/03/27 03:34:38;;;;;;;38.35;21.50;;;10.40;69.50;;;;;;4887843;29;20072;-68
2021/03/27 03:37:03;;;;;;;;;;;10.40;69.40;;;;;;4907475;29;20040;-66
2021/03/27 03:39:45;;;;;;;33.93;18.43;;;10.40;69.20;;;;;;4903868;29;19926;-66
2021/03/27 03:42:38;;;;;;;34.25;19.65;;;10.40;68.80;;;;;;4898995;29;20067;-67
2021/03/27 03:45:22;;;;;;;33.95;19.13;;;10.40;68.90;;;;;;4897850;29;20634;-67
2021/03/27 03:48:15;;;;;;;35.17;20.13;;;10.40;69.00;;;;;;4903426;29;20043;-67
2021/03/27 03:51:00;;;;;;;37.38;20.63;;;10.50;69.10;;;;;;4906280;29;20039;-66
2021/03/27 03:53:44;;;;;;;36.63;21.25;;;10.40;69.10;;;;;;4904664;29;20144;-66
2021/03/27 03:56:42;;;;;;;38.60;21.00;;;10.30;69.40;;;;;;4899614;29;20044;-67
2021/03/27 03:59:10;;;;;;;37.22;21.00;;;10.40;69.30;;;;;;4905207;29;20047;-67
2021/03/27 04:01:51;;;;;;;38.05;21.48;;;10.30;69.40;;;;;;4929597;29;20035;-66
2021/03/27 04:04:23;;;;;;;37.20;21.08;;;10.30;69.80;;;;;;4912818;29;20035;-68
2021/03/27 04:06:58;;;;;;;37.53;21.63;;;10.20;69.80;;;;;;4908738;29;20582;-66
2021/03/27 04:09:29;;;;;;;35.55;20.70;;;10.20;69.80;;;;;;4901696;29;20036;-67
2021/03/27 04:12:26;;;;;;;41.78;22.60;;;10.20;69.90;;;;;;4912912;29;20075;-68
2021/03/27 04:15:09;;;;;;;39.10;20.13;;;10.30;70.30;;;;;;4897921;29;20052;-68
2021/03/27 04:18:03;;;;;;;40.47;19.05;;;10.20;69.60;;;;;;4912193;29;20456;-67
2021/03/27 04:21:06;;;;;;;33.60;17.73;;;10.10;69.40;;;;;;4906371;29;20127;-66
2021/03/27 04:23:41;;;;;;;32.70;18.08;;;10.10;70.30;;;;;;4913393;29;20134;-65
2021/03/27 04:26:12;;;;;;;32.88;18.17;;;10.10;69.80;;;;;;4926177;29;20055;-66
2021/03/27 04:29:04;;;;;;;31.55;18.42;;;10.10;69.90;;;;;;4913735;29;20031;-66
2021/03/27 04:31:45;;;;;;;29.73;16.90;;;10.20;69.30;;;;;;4901324;29;20047;-68
2021/03/27 04:34:44;;;;;;;31.17;17.25;;;10.20;69.00;;;;;;4904211;29;20485;-66
2021/03/27 04:37:28;;;;;;;26.65;16.67;;;10.20;69.30;;;;;;4910758;29;20043;-66
2021/03/27 04:40:00;;;;;;;32.30;18.27;;;10.20;69.10;;;;;;4912074;29;20039;-64
2021/03/27 04:42:45;;;;;;;30.10;17.63;;;10.20;69.10;;;;;;4907851;29;20772;-66
2021/03/27 04:45:20;;;;;;;30.20;17.52;;;10.30;68.60;;;;;;4907215;29;20024;-66
2021/03/27 04:48:01;;;;;;;36.97;18.17;;;10.30;68.40;;;;;;4905771;29;20036;-67
2021/03/27 04:50:40;;;;;;;36.28;18.73;;;10.30;68.40;;;;;;4912632;29;20879;-66
2021/03/27 04:53:26;;;;;;;32.60;17.27;;;10.30;68.90;;;;;;4909606;29;20067;-67
2021/03/27 04:56:00;;;;;;;32.30;17.35;;;10.30;68.60;;;;;;4906368;29;20054;-66
2021/03/27 04:58:40;;;;;;;30.92;16.58;;;10.30;68.90;;;;;;4917747;29;20036;-66
2021/03/27 05:01:39;;;;;;;31.60;17.77;;;10.30;68.80;;;;;;4916806;29;20468;-66
2021/03/27 05:04:31;;;;;;;28.33;16.15;;;10.30;69.30;;;;;;4910027;29;20122;-66
2021/03/27 05:07:05;;;;;;;31.38;17.65;;;10.20;69.30;;;;;;4913637;29;20044;-66
2021/03/27 05:09:56;;;;;;;28.17;16.20;;;10.20;69.50;;;;;;4915831;29;20044;-67
2021/03/27 05:12:41;;;;;;;29.20;16.02;;;10.20;69.90;;;;;;4917828;29;20549;-66
2021/03/27 05:15:19;;;;;;;29.57;17.07;;;10.20;69.30;;;;;;4910647;29;20032;-66
2021/03/27 05:17:45;;;;;;;31.98;16.05;;;10.20;69.10;;;;;;4909457;29;20396;-66
2021/03/27 05:20:25;;;;;;;24.55;14.65;;;10.30;69.30;;;;;;4909879;29;20036;-66
2021/03/27 05:22:57;;;;;;;28.50;15.40;;;10.30;69.00;;;;;;4913129;29;20036;-66
2021/03/27 05:25:38;;;;;;;25.15;14.63;;;10.40;68.30;;;;;;4912542;29;20032;-66
2021/03/27 05:28:22;;;;;;;31.38;17.20;;;10.60;68.10;;;;;;4907617;29;20787;-66
2021/03/27 05:31:26;;;;;;;30.45;16.25;;;10.70;67.30;;;;;;4910303;29;20036;-66
2021/03/27 05:34:31;;;;;;;25.75;15.88;;;10.70;67.10;;;;;;4889879;29;20043;-66
2021/03/27 05:37:11;;;;;;;28.20;15.70;;;10.80;66.50;;;;;;4907733;29;20114;-66
2021/03/27 05:40:01;;;;;;;31.58;15.52;;;10.80;67.10;;;;;;4909279;29;20047;-66
2021/03/27 05:42:54;;;;;;;28.13;15.13;;;10.80;66.70;;;;;;4910197;29;20055;-66
2021/03/27 05:45:47;;;;;;;30.20;15.25;;;10.90;67.10;;;;;;4912268;29;20043;-66
2021/03/27 05:48:31;;;;;;;29.23;16.05;;;10.90;66.30;;;;;;4904035;29;20044;-68
2021/03/27 05:51:18;;;;;;;28.55;16.10;;;11.00;66.10;;;;;;4913693;29;20036;-67
2021/03/27 05:54:20;;;;;;;24.80;14.07;;;11.00;65.90;;;;;;4915306;29;20683;-66
2021/03/27 05:57:07;;;;;;;29.35;14.95;;;11.10;66.10;;;;;;4908620;29;20040;-67
2021/03/27 06:00:01;;;;;;;27.10;14.27;;;11.10;65.80;;;;;;4920524;29;20043;-68
2021/03/27 06:02:48;;;;;;;25.35;13.43;;;11.20;64.90;;;;;;4910025;29;20934;-67
2021/03/27 06:05:22;;;;;;;22.65;14.02;;;11.20;65.40;;;;;;4903881;29;20110;-66
2021/03/27 06:07:59;;;;;;;24.08;14.63;;;11.20;65.70;;;;;;4914846;29;20031;-66
2021/03/27 06:10:27;;;;;;;;;;;11.20;65.40;;;;;;4911501;29;20492;-68
2021/03/27 06:13:21;;;;;;;23.77;14.02;;;11.10;65.50;;;;;;4910165;29;20739;-67
2021/03/27 06:16:19;;;;;;;27.38;14.50;;;11.30;66.00;;;;;;4913643;29;20099;-67
2021/03/27 06:19:23;;;;;;;27.02;14.65;;;11.40;65.20;;;;;;4916738;29;20122;-67
2021/03/27 06:21:57;;;;;;;25.25;14.60;;;11.60;65.10;;;;;;4906269;29;20044;-67
2021/03/27 06:25:03;;;;;;;22.23;13.77;;;11.80;64.50;;;;;;4915838;29;20055;-67
2021/03/27 06:27:47;;;;;;;27.50;14.38;;;11.90;64.50;;;;;;4851572;29;20048;-67
2021/03/27 06:30:34;;;;;;;23.77;13.82;;;11.90;63.60;;;;;;4908480;29;20036;-66
2021/03/27 06:33:00;;;;;;;;;;;11.80;64.10;;;;;;4916396;29;20032;-66
2021/03/27 06:36:02;;;;;;;24.13;13.70;;;11.90;64.20;;;;;;4912773;29;19926;-67
2021/03/27 06:38:57;;;;;;;23.95;14.15;;;11.80;64.60;;;;;;4924798;29;20704;-66
2021/03/27 06:41:52;;;;;;;25.92;14.38;;;11.80;64.30;;;;;;4901524;29;20052;-66
2021/03/27 06:44:27;;;;;;;23.95;14.13;;;11.80;65.00;;;;;;4902258;29;20040;-66
2021/03/27 06:47:30;;;;;;;24.50;14.98;;;11.80;65.30;;;;;;4916264;29;20044;-66
2021/03/27 06:50:20;;;;;;;23.90;14.32;;;11.70;66.50;;;;;;4911146;29;20036;-67
2021/03/27 06:53:12;;;;;;;24.90;13.82;;;11.70;68.70;;;;;;4926325;29;20602;-66
2021/03/27 06:55:43;;;;;;;23.27;13.45;;;11.60;69.10;;;;;;4923907;29;20933;-66
2021/03/27 06:58:37;;;;;;;20.00;13.35;;;11.50;69.40;;;;;;4924247;29;20127;-66
2021/03/27 07:01:40;;;;;;;24.13;13.85;;;11.50;69.40;;;;;;4914268;29;20050;-66
2021/03/27 07:04:27;;;;;;;24.05;12.85;;;11.50;69.80;;;;;;4914128;29;20043;-66
2021/03/27 07:07:08;;;;;;;24.75;13.45;;;11.40;69.70;;;;;;4911403;29;20040;-66
2021/03/27 07:10:26;;;;;;;25.75;13.85;;;11.30;70.10;;;;;;4914417;29;20039;-67
2021/03/27 07:13:01;;;;;;;;;;;11.20;70.10;;;;;;4887569;29;20058;-66
2021/03/27 07:15:59;;;;;;;21.08;12.23;;;11.10;72.00;;;;;;4910008;29;19915;-67
2021/03/27 07:18:46;;;;;;;22.65;12.98;;;10.90;74.00;;;;;;4899681;29;20034;-66
2021/03/27 07:21:18;;;;;;;19.80;12.93;;;10.70;76.90;;;;;;4892905;29;21041;-66
2021/03/27 07:24:02;;;;;;;26.40;12.82;;;10.50;77.80;;;;;;4906112;29;20528;-66
2021/03/27 07:26:45;;;;;;;22.00;12.95;;;10.50;78.50;;;;;;4913005;29;20040;-66
2021/03/27 07:29:30;;;;;;;20.10;12.07;;;10.50;80.20;;;;;;4911198;29;20032;-66
2021/03/27 07:32:21;;;;;;;18.27;12.93;;;10.50;80.40;;;;;;4917157;29;20102;-66
2021/03/27 07:34:55;;;;;;;19.00;12.15;;;10.60;80.60;;;;;;4927894;29;20044;-66
2021/03/27 07:37:39;;;;;;;20.45;12.75;;;10.50;80.40;;;;;;4908967;29;20404;-66
2021/03/27 07:40:05;;;;;;;21.23;12.57;;;10.40;79.50;;;;;;4910397;29;20031;-67
2021/03/27 07:42:41;;;;;;;22.83;12.55;;;10.20;80.50;;;;;;4914310;29;20097;-66
2021/03/27 07:45:25;;;;;;;22.90;12.32;;;10.10;81.60;;;;;;4901704;29;20059;-67
2021/03/27 07:48:24;;;;;;;12.05;7.57;;;10.10;83.10;;;;;;4905734;29;20047;-66
2021/03/27 07:50:59;;;;;;;7.18;1.80;;;9.90;81.20;;;;;;4911623;29;20040;-65
2021/03/27 07:53:27;;;;;;;2.20;1.10;;;9.50;80.50;;;;;;4909662;29;20042;-65
2021/03/27 07:56:15;;;;;;;1.52;1.00;;;9.30;81.30;;;;;;4903362;29;20116;-65
2021/03/27 07:59:19;;;;;;;0.35;0.35;;;9.10;81.30;;;;;;4920667;29;20066;-66
2021/03/27 08:02:08;;;;;;;1.38;0.60;;;9.00;83.00;;;;;;4916071;29;20027;-66
2021/03/27 08:05:01;;;;;;;0.52;0.32;;;9.10;83.10;;;;;;4911954;29;20051;-66
2021/03/27 08:07:51;;;;;;;0.60;0.40;;;9.10;82.20;;;;;;4907839;29;20100;-66
2021/03/27 08:10:34;;;;;;;0.40;0.40;;;9.10;81.50;;;;;;4905753;29;20055;-66
2021/03/27 08:13:21;;;;;;;0.30;0.30;;;9.00;80.40;;;;;;4912344;29;20050;-67
2021/03/27 08:16:21;;;;;;;0.52;0.45;;;8.90;81.00;;;;;;4904046;29;20510;-66
2021/03/27 08:19:02;;;;;;;0.93;0.65;;;8.70;80.60;;;;;;4908929;29;20580;-67
2021/03/27 08:21:34;;;;;;;0.47;0.47;;;8.60;80.60;;;;;;4901665;29;20031;-67
2021/03/27 08:24:04;;;;;;;1.17;0.43;;;8.50;81.30;;;;;;4909537;29;20036;-67
2021/03/27 08:26:57;;;;;;;1.98;0.50;;;8.40;81.50;;;;;;4903939;29;20027;-66
2021/03/27 08:29:44;;;;;;;0.88;0.63;;;8.30;82.80;;;;;;4907802;29;21224;-66
2021/03/27 08:32:27;;;;;;;0.80;0.60;;;8.40;82.70;;;;;;4908883;29;20042;-66
2021/03/27 08:35:24;;;;;;;2.38;0.73;;;8.40;82.30;;;;;;4912846;29;20036;-66
2021/03/27 08:38:14;;;;;;;3.50;0.65;;;8.50;82.60;;;;;;4910150;29;20732;-66
2021/03/27 08:40:58;;;;;;;1.50;1.10;;;8.60;82.20;;;;;;4911814;29;20071;-67
2021/03/27 08:43:51;;;;;;;0.55;0.55;;;8.60;81.40;;;;;;4907670;29;20032;-66
2021/03/27 08:46:44;;;;;;;0.73;0.73;;;8.70;81.10;;;;;;4914630;29;20036;-66
2021/03/27 08:49:31;;;;;;;1.02;0.80;;;8.70;81.60;;;;;;4914565;29;20145;-66
2021/03/27 08:52:18;;;;;;;1.60;0.90;;;8.80;81.40;;;;;;4908405;29;20579;-66
2021/03/27 08:55:03;;;;;;;1.42;1.08;;;8.70;81.90;;;;;;4910193;29;20059;-66
2021/03/27 08:57:56;;;;;;;1.58;1.00;;;8.80;82.90;;;;;;4920856;28;20040;-67
2021/03/27 09:00:40;;;;;;;2.13;1.15;;;8.90;83.20;;;;;;4922175;29;20044;-67
2021/03/27 09:03:21;;;;;;;1.63;1.40;;;9.00;82.60;;;;;;4914555;29;20044;-67
2021/03/27 09:06:25;;;;;;;1.23;1.13;;;8.90;81.30;;;;;;4923024;29;20040;-68
2021/03/27 09:09:07;;;;;;;2.10;1.60;;;9.10;82.80;;;;;;4909486;29;20044;-67
2021/03/27 09:11:46;;;;;;;2.65;1.60;;;9.30;82.10;;;;;;4911790;29;20071;-66
2021/03/27 09:14:14;;;;;;;1.42;1.17;;;9.30;81.10;;;;;;4901688;29;20059;-67
2021/03/27 09:16:59;;;;;;;2.25;1.30;;;9.30;80.90;;;;;;4907618;29;20035;-66
2021/03/27 09:19:48;;;;;;;1.52;1.27;;;9.40;81.80;;;;;;4912732;29;20134;-66
2021/03/27 09:22:42;;;;;;;2.05;1.25;;;9.40;80.90;;;;;;4909469;29;20884;-66
2021/03/27 09:25:16;;;;;;;1.65;1.38;;;9.40;80.60;;;;;;4908618;29;20118;-66
2021/03/27 09:27:50;;;;;;;1.90;1.60;;;9.30;80.40;;;;;;4913403;29;20032;-66
2021/03/27 09:30:41;;;;;;;2.63;1.45;;;9.40;81.50;;;;;;4904296;29;20028;-66
2021/03/27 09:33:25;;;;;;;2.03;1.80;;;9.60;80.30;;;;;;4911379;29;20087;-67
2021/03/27 09:36:09;;;;;;;3.92;1.50;;;9.70;79.40;;;;;;4911171;29;20497;-67
2021/03/27 09:38:45;;;;;;;1.67;1.58;;;9.90;79.60;;;;;;4908525;29;20176;-67
2021/03/27 09:41:38;;;;;;;2.30;2.08;;;10.00;79.70;;;;;;4910402;29;20047;-66
2021/03/27 09:44:16;;;;;;;2.05;1.70;;;10.10;78.40;;;;;;4922161;29;20047;-67
2021/03/27 09:46:58;;;;;;;4.20;2.95;;;10.10;78.60;;;;;;4912616;29;20142;-66
2021/03/27 09:49:57;;;;;;;3.13;2.63;;;10.10;78.80;;;;;;4932477;29;20304;-62
2021/03/27 09:52:54;;;;;;;3.67;2.30;;;10.10;77.80;;;;;;4913629;29;20057;-61
2021/03/27 09:55:56;;;;;;;4.97;3.13;;;10.10;77.50;;;;;;4905704;29;20031;-63
2021/03/27 09:59:04;;;;;;;5.28;2.95;;;10.00;77.40;;;;;;4911183;29;20583;-63
2021/03/27 10:01:44;;;;;;;4.65;3.17;;;10.10;76.90;;;;;;4913835;29;20067;-61
2021/03/27 10:04:34;;;;;;;4.90;3.47;;;10.30;76.80;;;;;;4881697;29;20036;-63
2021/03/27 10:07:12;;;;;;;3.55;2.78;;;10.60;75.70;;;;;;4910894;29;20035;-62
2021/03/27 10:10:08;;;;;;;3.40;2.95;;;11.00;73.20;;;;;;4910607;29;20036;-63
2021/03/27 10:12:54;;;;;;;5.03;2.95;;;11.60;73.00;;;;;;4911293;29;20060;-67
2021/03/27 10:15:30;;;;;;;7.57;3.47;;;12.10;71.00;;;;;;4911660;29;20647;-67
2021/03/27 10:18:08;;;;;;;6.53;2.92;;;12.30;68.70;;;;;;4903459;29;20040;-64
2021/03/27 10:20:57;;;;;;;3.30;2.88;;;12.40;68.10;;;;;;4907917;29;20043;-63
2021/03/27 10:23:39;;;;;;;5.07;2.80;;;12.40;67.70;;;;;;4913579;29;20075;-63
2021/03/27 10:26:08;;;;;;;3.72;2.95;;;12.40;65.40;;;;;;4909536;29;20509;-63
2021/03/27 10:28:42;;;;;;;5.25;3.72;;;12.10;64.30;;;;;;4906028;29;20040;-65
2021/03/27 10:31:16;;;;;;;4.72;3.97;;;11.90;66.20;;;;;;4911807;29;20122;-65
2021/03/27 10:34:01;;;;;;;5.95;4.13;;;11.60;67.30;;;;;;4929905;29;20040;-62
2021/03/27 10:36:43;;;;;;;8.70;3.50;;;11.30;68.00;;;;;;4913327;29;20043;-63
2021/03/27 10:39:38;;;;;;;8.65;4.05;;;11.00;67.50;;;;;;4913152;29;20558;-63
2021/03/27 10:42:35;;;;;;;5.50;3.47;;;11.00;69.50;;;;;;4888232;29;20495;-63
2021/03/27 10:45:19;;;;;;;4.65;3.10;;;11.00;68.90;;;;;;4905165;29;20350;-64
2021/03/27 10:48:03;;;;;;;8.77;3.72;;;11.30;66.80;;;;;;4909914;29;20063;-63
2021/03/27 10:51:24;;;;;;;6.15;3.22;;;11.40;66.10;;;;;;4900736;29;20564;-63
2021/03/27 10:54:21;;;;;;;2.72;2.33;;;11.60;61.70;;;;;;4875366;29;20056;-63
2021/03/27 10:56:46;;;;;;;6.80;2.97;;;11.60;60.00;;;;;;4910912;29;20044;-62
2021/03/27 10:59:49;;;;;;;4.13;2.40;;;11.50;60.00;;;;;;4908169;29;20040;-63
2021/03/27 11:02:48;;;;;;;5.65;2.72;;;11.70;61.70;;;;;;4916314;29;20500;-63
2021/03/27 11:05:26;;;;;;;3.20;2.17;;;11.90;63.50;;;;;;4902611;29;20137;-63
2021/03/27 11:08:23;;;;;;;3.10;1.85;;;12.10;62.30;;;;;;4908390;29;20040;-63
2021/03/27 11:11:14;;;;;;;7.00;2.53;;;12.30;60.80;;;;;;4912603;29;20551;-62
2021/03/27 11:14:06;;;;;;;6.32;2.97;;;12.50;58.40;;;;;;4907072;29;20032;-63
2021/03/27 11:16:55;;;;;;;8.05;2.92;;;12.50;57.30;;;;;;4912204;29;20040;-63
2021/03/27 11:19:54;;;;;;;5.47;2.90;;;12.40;59.00;;;;;;4908166;29;20403;-63
2021/03/27 11:22:42;;;;;;;7.53;3.00;;;12.40;58.60;;;;;;4926001;29;20040;-63
2021/03/27 11:25:21;;;;;;;7.78;3.17;;;12.50;59.60;;;;;;4905623;29;20043;-63
2021/03/27 11:27:56;;;;;;;3.30;2.50;;;12.60;60.00;;;;;;4908845;29;20055;-63
2021/03/27 11:30:52;;;;;;;5.05;3.20;;;12.70;54.60;;;;;;4914182;29;20126;-63
2021/03/27 11:33:34;;;;;;;6.50;3.13;;;12.80;57.00;;;;;;4917196;29;20273;-63
2021/03/27 11:36:16;;;;;;;6.68;3.55;;;12.80;55.30;;;;;;4908120;29;20050;-63
2021/03/27 11:39:25;;;;;;;7.20;2.72;;;12.60;54.50;;;;;;4906755;29;20054;-63
2021/03/27 11:42:04;;;;;;;8.38;3.17;;;12.50;52.60;;;;;;4888768;29;20082;-63
2021/03/27 11:44:49;;;;;;;4.03;3.05;;;12.50;54.80;;;;;;4914543;29;20053;-63
2021/03/27 11:47:20;;;;;;;6.63;3.05;;;12.80;57.20;;;;;;4922099;29;20467;-63
2021/03/27 11:50:07;;;;;;;5.53;2.85;;;13.00;55.00;;;;;;4914964;29;20040;-64
2021/03/27 11:53:00;;;;;;;5.90;2.63;;;13.20;54.60;;;;;;4906751;29;20043;-62
2021/03/27 11:55:30;;;;;;;3.88;2.55;;;13.10;53.00;;;;;;4905465;29;20492;-63
2021/03/27 11:58:00;;;;;;;6.20;2.65;;;13.10;53.20;;;;;;4905130;29;20783;-63
2021/03/27 12:01:02;;;;;;;6.32;2.92;;;13.20;54.80;;;;;;4902986;29;20032;-68
2021/03/27 12:03:49;;;;;;;6.75;2.20;;;13.50;54.00;;;;;;4898593;29;20139;-67
2021/03/27 12:07:02;;;;;;;4.80;2.00;;;13.50;50.00;;;;;;4898658;29;20043;-67
2021/03/27 12:09:44;;;;;;;6.90;2.30;;;13.40;50.20;;;;;;4859037;29;20126;-67
2021/03/27 12:12:29;;;;;;;5.60;1.83;;;13.30;50.30;;;;;;4907806;29;20043;-66
2021/03/27 12:15:05;;;;;;;3.75;1.50;;;13.30;50.70;;;;;;4899648;29;20036;-68
2021/03/27 12:17:51;;;;;;;7.80;1.65;;;13.20;47.10;;;;;;4904898;29;20772;-66
2021/03/27 12:20:32;;;;;;;5.40;2.22;;;13.00;49.10;;;;;;4915396;29;20032;-66
2021/03/27 12:23:11;;;;;;;6.65;1.75;;;13.00;49.60;;;;;;4903827;29;20452;-66
2021/03/27 12:25:46;;;;;;;3.22;1.30;;;12.80;48.80;;;;;;4904619;29;20039;-67
2021/03/27 12:28:33;;;;;;;2.08;1.27;;;12.90;50.30;;;;;;4900178;29;20036;-67
2021/03/27 12:31:10;;;;;;;5.07;1.83;;;12.70;49.40;;;;;;4920929;29;20031;-67
2021/03/27 12:33:38;;;;;;;3.75;1.40;;;12.30;52.60;;;;;;4905726;29;20054;-67
2021/03/27 12:36:19;;;;;;;3.50;1.73;;;11.70;58.40;;;;;;4905125;29;20940;-67
2021/03/27 12:39:04;;;;;;;3.70;1.42;;;10.90;66.00;;;;;;4908036;29;20043;-66
2021/03/27 12:41:36;;;;;;;3.22;1.55;;;10.30;69.80;;;;;;4907118;29;20032;-67
2021/03/27 12:44:06;;;;;;;4.28;2.03;;;9.90;72.10;;;;;;4901302;29;20035;-67
2021/03/27 12:46:32;;;;;;;3.25;1.45;;;9.60;74.70;;;;;;4901095;29;20482;-67
2021/03/27 12:49:23;;;;;;;3.45;1.70;;;9.50;74.70;;;;;;4911584;29;20031;-69
2021/03/27 12:52:07;;;;;;;2.65;1.30;;;9.40;75.30;;;;;;4896288;29;20071;-67
2021/03/27 12:54:54;;;;;;;1.85;1.20;;;9.30;74.70;;;;;;4916990;29;20119;-67
2021/03/27 12:57:39;;;;;;;3.47;1.17;;;9.30;77.60;;;;;;4882531;29;20046;-67
2021/03/27 13:00:29;;;;;;;2.08;1.17;;;9.60;80.80;;;;;;4911174;29;20071;-69
2021/03/27 13:03:16;;;;;;;2.35;1.10;;;9.90;74.40;;;;;;4902881;29;20040;-67
2021/03/27 13:05:47;;;;;;;1.90;1.13;;;9.80;73.40;;;;;;4903286;29;20039;-67
2021/03/27 13:08:37;;;;;;;1.83;1.25;;;9.80;73.30;;;;;;4910629;29;20607;-67
2021/03/27 13:11:35;;;;;;;5.45;1.65;;;9.70;75.00;;;;;;4907274;29;20970;-67
2021/03/27 13:14:19;;;;;;;;;;;9.70;73.40;;;;;;4902388;29;20032;-66
2021/03/27 13:16:49;;;;;;;2.53;1.45;;;9.80;73.00;;;;;;4903569;29;19915;-66
2021/03/27 13:19:40;;;;;;;3.00;1.35;;;9.70;72.50;;;;;;4905258;29;20031;-66
2021/03/27 13:22:09;;;;;;;2.97;1.65;;;9.60;72.40;;;;;;4906699;29;20036;-66
2021/03/27 13:24:35;;;;;;;1.67;1.13;;;9.40;74.80;;;;;;4912357;29;20035;-67
2021/03/27 13:27:12;;;;;;;1.52;0.88;;;9.30;74.10;;;;;;4905084;29;20027;-67
2021/03/27 13:29:41;;;;;;;1.35;0.85;;;9.10;73.90;;;;;;4907293;29;20039;-67
2021/03/27 13:32:30;;;;;;;2.33;0.80;;;9.10;74.40;;;;;;4908126;29;20659;-67
2021/03/27 13:35:22;;;;;;;1.45;0.55;;;8.80;72.40;;;;;;4900614;29;20103;-68
2021/03/27 13:38:03;;;;;;;1.08;0.55;;;8.60;73.70;;;;;;4907312;29;20048;-67
2021/03/27 13:40:36;;;;;;;2.95;0.70;;;8.60;75.00;;;;;;4905817;29;20101;-68
2021/03/27 13:43:11;;;;;;;0.52;0.45;;;8.50;74.00;;;;;;4907435;29;20036;-68
2021/03/27 13:45:56;;;;;;;1.45;0.60;;;8.40;74.70;;;;;;4903019;29;20040;-68
2021/03/27 13:48:30;;;;;;;1.02;0.52;;;8.40;74.20;;;;;;4909557;29;20035;-70
2021/03/27 13:50:56;;;;;;;1.30;0.55;;;8.40;75.80;;;;;;4881607;29;20217;-66
2021/03/27 13:53:43;;;;;;;1.10;0.73;;;8.50;74.70;;;;;;4907539;29;20036;-67
2021/03/27 13:56:26;;;;;;;1.45;0.68;;;8.50;74.80;;;;;;4911059;29;20044;-65
2021/03/27 13:59:41;;;;;;;2.88;1.10;;;8.70;75.40;;;;;;4914349;29;20166;-66
2021/03/27 14:02:46;;;;;;;3.33;1.00;;;8.70;74.20;;;;;;4917699;29;20198;-66
2021/03/27 14:05:38;;;;;;;2.88;1.70;;;8.60;75.30;;;;;;4907941;29;20495;-63
2021/03/27 14:08:28;;;;;;;1.48;1.20;;;8.70;76.40;;;;;;4913803;29;20032;-63